sensor_id;sensor_type;location;lat;lon;timestamp;P1;durP1;ratioP1;P2;durP2;ratioP2
18170;SDS011;9210;48.358;10.902;2023-08-20T00:01:43;9.10;;;5.10;;
18170;SDS011;9210;48.358;10.902;2023-08-20T00:04:11;13.68;;;5.45;;
18170;SDS011;9210;48.358;10.902;2023-08-20T00:06:41;9.65;;;5.30;;
18170;SDS011;9210;48.358;10.902;2023-08-20T00:09:12;12.00;;;5.80;;
18170;SDS011;9210;48.358;10.902;2023-08-20T00:11:41;9.85;;;5.47;;
18170;SDS011;9210;48.358;10.902;2023-08-20T00:16:39;17.25;;;8.23;;
18170;SDS011;9210;48.358;10.902;2023-08-20T00:19:10;15.13;;;7.28;;
18170;SDS011;9210;48.358;10.902;2023-08-20T00:21:39;12.35;;;6.90;;
18170;SDS011;9210;48.358;10.902;2023-08-20T00:24:11;15.48;;;7.60;;
18170;SDS011;9210;48.358;10.902;2023-08-20T00:26:40;16.17;;;7.97;;
18170;SDS011;9210;48.358;10.902;2023-08-20T00:29:09;12.27;;;7.20;;
18170;SDS011;9210;48.358;10.902;2023-08-20T00:31:37;13.75;;;8.05;;
18170;SDS011;9210;48.358;10.902;2023-08-20T00:34:06;12.60;;;7.30;;
18170;SDS011;9210;48.358;10.902;2023-08-20T00:36:36;14.52;;;7.90;;
18170;SDS011;9210;48.358;10.902;2023-08-20T00:39:05;16.55;;;7.82;;
18170;SDS011;9210;48.358;10.902;2023-08-20T00:41:34;17.48;;;8.15;;
18170;SDS011;9210;48.358;10.902;2023-08-20T00:44:02;14.60;;;7.65;;
18170;SDS011;9210;48.358;10.902;2023-08-20T00:46:31;12.30;;;7.35;;
18170;SDS011;9210;48.358;10.902;2023-08-20T00:49:00;14.38;;;7.63;;
18170;SDS011;9210;48.358;10.902;2023-08-20T00:51:29;11.73;;;7.13;;
18170;SDS011;9210;48.358;10.902;2023-08-20T00:53:58;15.45;;;7.40;;
18170;SDS011;9210;48.358;10.902;2023-08-20T00:56:27;15.32;;;8.10;;
18170;SDS011;9210;48.358;10.902;2023-08-20T00:58:57;16.98;;;7.30;;
18170;SDS011;9210;48.358;10.902;2023-08-20T01:01:26;13.98;;;7.65;;
18170;SDS011;9210;48.358;10.902;2023-08-20T01:03:55;13.05;;;7.60;;
18170;SDS011;9210;48.358;10.902;2023-08-20T01:06:26;15.20;;;7.93;;
18170;SDS011;9210;48.358;10.902;2023-08-20T01:08:57;12.10;;;7.20;;
18170;SDS011;9210;48.358;10.902;2023-08-20T01:11:29;13.35;;;6.97;;
18170;SDS011;9210;48.358;10.902;2023-08-20T01:13:58;11.10;;;6.40;;
18170;SDS011;9210;48.358;10.902;2023-08-20T01:16:27;11.23;;;6.57;;
18170;SDS011;9210;48.358;10.902;2023-08-20T01:18:56;12.95;;;6.95;;
18170;SDS011;9210;48.358;10.902;2023-08-20T01:21:32;14.02;;;7.10;;
18170;SDS011;9210;48.358;10.902;2023-08-20T01:24:10;15.60;;;7.15;;
18170;SDS011;9210;48.358;10.902;2023-08-20T01:29:26;11.38;;;6.63;;
18170;SDS011;9210;48.358;10.902;2023-08-20T01:31:55;10.20;;;6.38;;
18170;SDS011;9210;48.358;10.902;2023-08-20T01:34:23;11.50;;;6.85;;
18170;SDS011;9210;48.358;10.902;2023-08-20T01:36:53;18.63;;;7.55;;
18170;SDS011;9210;48.358;10.902;2023-08-20T01:39:21;11.40;;;7.10;;
18170;SDS011;9210;48.358;10.902;2023-08-20T01:41:51;14.02;;;6.93;;
18170;SDS011;9210;48.358;10.902;2023-08-20T01:44:19;13.55;;;7.30;;
18170;SDS011;9210;48.358;10.902;2023-08-20T01:46:49;12.30;;;6.93;;
18170;SDS011;9210;48.358;10.902;2023-08-20T01:49:18;13.20;;;6.53;;
18170;SDS011;9210;48.358;10.902;2023-08-20T01:51:47;11.98;;;7.15;;
18170;SDS011;9210;48.358;10.902;2023-08-20T01:54:15;17.30;;;7.10;;
18170;SDS011;9210;48.358;10.902;2023-08-20T01:56:44;11.20;;;6.57;;
18170;SDS011;9210;48.358;10.902;2023-08-20T01:59:13;12.63;;;7.22;;
18170;SDS011;9210;48.358;10.902;2023-08-20T02:01:41;11.88;;;7.18;;
18170;SDS011;9210;48.358;10.902;2023-08-20T02:04:11;14.70;;;7.22;;
18170;SDS011;9210;48.358;10.902;2023-08-20T02:06:40;11.70;;;6.70;;
18170;SDS011;9210;48.358;10.902;2023-08-20T02:09:08;12.93;;;7.10;;
18170;SDS011;9210;48.358;10.902;2023-08-20T02:11:37;15.90;;;7.25;;
18170;SDS011;9210;48.358;10.902;2023-08-20T02:14:06;12.40;;;6.70;;
18170;SDS011;9210;48.358;10.902;2023-08-20T02:16:34;12.75;;;7.30;;
18170;SDS011;9210;48.358;10.902;2023-08-20T02:19:04;10.70;;;6.47;;
18170;SDS011;9210;48.358;10.902;2023-08-20T02:21:34;11.55;;;7.00;;
18170;SDS011;9210;48.358;10.902;2023-08-20T02:24:03;15.65;;;7.40;;
18170;SDS011;9210;48.358;10.902;2023-08-20T02:26:32;15.55;;;6.85;;
18170;SDS011;9210;48.358;10.902;2023-08-20T02:29:00;15.43;;;7.32;;
18170;SDS011;9210;48.358;10.902;2023-08-20T02:31:30;13.43;;;6.13;;
18170;SDS011;9210;48.358;10.902;2023-08-20T02:33:58;12.10;;;6.45;;
18170;SDS011;9210;48.358;10.902;2023-08-20T02:36:26;13.30;;;6.95;;
18170;SDS011;9210;48.358;10.902;2023-08-20T02:38:57;11.65;;;6.63;;
18170;SDS011;9210;48.358;10.902;2023-08-20T02:41:25;11.15;;;6.25;;
18170;SDS011;9210;48.358;10.902;2023-08-20T02:43:54;10.60;;;6.32;;
18170;SDS011;9210;48.358;10.902;2023-08-20T02:46:23;11.00;;;6.45;;
18170;SDS011;9210;48.358;10.902;2023-08-20T02:48:51;15.88;;;7.20;;
18170;SDS011;9210;48.358;10.902;2023-08-20T02:51:20;13.50;;;6.75;;
18170;SDS011;9210;48.358;10.902;2023-08-20T02:53:48;12.02;;;6.72;;
18170;SDS011;9210;48.358;10.902;2023-08-20T02:56:19;14.52;;;6.68;;
18170;SDS011;9210;48.358;10.902;2023-08-20T02:58:48;13.65;;;7.03;;
18170;SDS011;9210;48.358;10.902;2023-08-20T03:01:20;13.45;;;6.80;;
18170;SDS011;9210;48.358;10.902;2023-08-20T03:03:48;13.50;;;7.13;;
18170;SDS011;9210;48.358;10.902;2023-08-20T03:06:17;11.50;;;7.05;;
18170;SDS011;9210;48.358;10.902;2023-08-20T03:08:46;15.75;;;7.00;;
18170;SDS011;9210;48.358;10.902;2023-08-20T03:11:15;12.68;;;7.15;;
18170;SDS011;9210;48.358;10.902;2023-08-20T03:13:45;12.52;;;7.00;;
18170;SDS011;9210;48.358;10.902;2023-08-20T03:16:14;14.18;;;7.50;;
18170;SDS011;9210;48.358;10.902;2023-08-20T03:18:42;12.73;;;7.07;;
18170;SDS011;9210;48.358;10.902;2023-08-20T03:21:11;9.82;;;6.63;;
18170;SDS011;9210;48.358;10.902;2023-08-20T03:23:39;11.30;;;7.05;;
18170;SDS011;9210;48.358;10.902;2023-08-20T03:26:08;11.50;;;6.47;;
18170;SDS011;9210;48.358;10.902;2023-08-20T03:28:37;14.60;;;7.18;;
18170;SDS011;9210;48.358;10.902;2023-08-20T03:31:07;14.50;;;7.28;;
18170;SDS011;9210;48.358;10.902;2023-08-20T03:33:39;14.95;;;7.15;;
18170;SDS011;9210;48.358;10.902;2023-08-20T03:36:08;10.63;;;6.72;;
18170;SDS011;9210;48.358;10.902;2023-08-20T03:38:36;10.23;;;6.10;;
18170;SDS011;9210;48.358;10.902;2023-08-20T03:41:05;13.65;;;6.43;;
18170;SDS011;9210;48.358;10.902;2023-08-20T03:43:35;13.55;;;6.45;;
18170;SDS011;9210;48.358;10.902;2023-08-20T03:46:03;11.55;;;6.78;;
18170;SDS011;9210;48.358;10.902;2023-08-20T03:48:34;12.23;;;6.57;;
18170;SDS011;9210;48.358;10.902;2023-08-20T03:51:03;13.55;;;6.68;;
18170;SDS011;9210;48.358;10.902;2023-08-20T03:53:31;14.68;;;7.28;;
18170;SDS011;9210;48.358;10.902;2023-08-20T03:56:00;12.88;;;7.20;;
18170;SDS011;9210;48.358;10.902;2023-08-20T03:58:29;14.35;;;6.20;;
18170;SDS011;9210;48.358;10.902;2023-08-20T04:00:57;11.80;;;6.63;;
18170;SDS011;9210;48.358;10.902;2023-08-20T04:03:25;13.07;;;6.72;;
18170;SDS011;9210;48.358;10.902;2023-08-20T04:05:55;12.30;;;6.38;;
18170;SDS011;9210;48.358;10.902;2023-08-20T04:08:24;15.02;;;6.47;;
18170;SDS011;9210;48.358;10.902;2023-08-20T04:10:52;11.98;;;6.57;;
18170;SDS011;9210;48.358;10.902;2023-08-20T04:13:21;13.98;;;6.65;;
18170;SDS011;9210;48.358;10.902;2023-08-20T04:15:51;11.73;;;6.15;;
18170;SDS011;9210;48.358;10.902;2023-08-20T04:18:20;10.32;;;6.75;;
18170;SDS011;9210;48.358;10.902;2023-08-20T04:20:51;13.02;;;6.82;;
18170;SDS011;9210;48.358;10.902;2023-08-20T04:23:21;11.57;;;7.22;;
18170;SDS011;9210;48.358;10.902;2023-08-20T04:25:49;12.15;;;7.80;;
18170;SDS011;9210;48.358;10.902;2023-08-20T04:28:18;13.88;;;7.18;;
18170;SDS011;9210;48.358;10.902;2023-08-20T04:30:46;13.07;;;6.85;;
18170;SDS011;9210;48.358;10.902;2023-08-20T04:33:16;14.43;;;7.15;;
18170;SDS011;9210;48.358;10.902;2023-08-20T04:35:45;14.32;;;7.30;;
18170;SDS011;9210;48.358;10.902;2023-08-20T04:38:13;11.60;;;7.00;;
18170;SDS011;9210;48.358;10.902;2023-08-20T04:40:44;14.43;;;7.32;;
18170;SDS011;9210;48.358;10.902;2023-08-20T04:43:15;13.32;;;6.85;;
18170;SDS011;9210;48.358;10.902;2023-08-20T04:45:44;13.15;;;6.60;;
18170;SDS011;9210;48.358;10.902;2023-08-20T04:48:12;13.15;;;6.53;;
18170;SDS011;9210;48.358;10.902;2023-08-20T04:50:41;13.10;;;6.50;;
18170;SDS011;9210;48.358;10.902;2023-08-20T04:53:09;15.50;;;7.57;;
18170;SDS011;9210;48.358;10.902;2023-08-20T04:55:38;11.68;;;6.68;;
18170;SDS011;9210;48.358;10.902;2023-08-20T04:58:08;11.60;;;7.05;;
18170;SDS011;9210;48.358;10.902;2023-08-20T05:00:37;15.35;;;7.88;;
18170;SDS011;9210;48.358;10.902;2023-08-20T05:03:09;14.68;;;7.28;;
18170;SDS011;9210;48.358;10.902;2023-08-20T05:05:39;13.45;;;7.60;;
18170;SDS011;9210;48.358;10.902;2023-08-20T05:08:07;15.73;;;7.57;;
18170;SDS011;9210;48.358;10.902;2023-08-20T05:10:36;10.38;;;6.65;;
18170;SDS011;9210;48.358;10.902;2023-08-20T05:13:05;11.15;;;6.95;;
18170;SDS011;9210;48.358;10.902;2023-08-20T05:15:35;17.30;;;8.57;;
18170;SDS011;9210;48.358;10.902;2023-08-20T05:18:04;14.70;;;7.18;;
18170;SDS011;9210;48.358;10.902;2023-08-20T05:20:34;15.90;;;7.80;;
18170;SDS011;9210;48.358;10.902;2023-08-20T05:23:02;15.75;;;7.80;;
18170;SDS011;9210;48.358;10.902;2023-08-20T05:25:32;14.23;;;8.20;;
18170;SDS011;9210;48.358;10.902;2023-08-20T05:28:00;13.05;;;8.10;;
18170;SDS011;9210;48.358;10.902;2023-08-20T05:30:29;18.58;;;8.93;;
18170;SDS011;9210;48.358;10.902;2023-08-20T05:32:59;13.63;;;7.88;;
18170;SDS011;9210;48.358;10.902;2023-08-20T05:35:33;14.65;;;8.52;;
18170;SDS011;9210;48.358;10.902;2023-08-20T05:38:02;16.55;;;7.43;;
18170;SDS011;9210;48.358;10.902;2023-08-20T05:40:31;12.77;;;7.57;;
18170;SDS011;9210;48.358;10.902;2023-08-20T05:43:00;17.02;;;7.88;;
18170;SDS011;9210;48.358;10.902;2023-08-20T05:45:29;15.25;;;8.20;;
18170;SDS011;9210;48.358;10.902;2023-08-20T05:48:00;15.30;;;8.70;;
18170;SDS011;9210;48.358;10.902;2023-08-20T05:50:28;11.10;;;7.10;;
18170;SDS011;9210;48.358;10.902;2023-08-20T05:52:57;13.30;;;7.97;;
18170;SDS011;9210;48.358;10.902;2023-08-20T05:55:27;14.23;;;8.15;;
18170;SDS011;9210;48.358;10.902;2023-08-20T05:57:55;14.13;;;7.28;;
18170;SDS011;9210;48.358;10.902;2023-08-20T06:00:24;16.52;;;7.82;;
18170;SDS011;9210;48.358;10.902;2023-08-20T06:02:53;11.63;;;7.32;;
18170;SDS011;9210;48.358;10.902;2023-08-20T06:05:23;13.70;;;7.72;;
18170;SDS011;9210;48.358;10.902;2023-08-20T06:07:52;12.85;;;7.20;;
18170;SDS011;9210;48.358;10.902;2023-08-20T06:10:20;13.07;;;7.35;;
18170;SDS011;9210;48.358;10.902;2023-08-20T06:12:49;15.50;;;7.72;;
18170;SDS011;9210;48.358;10.902;2023-08-20T06:15:17;12.50;;;7.88;;
18170;SDS011;9210;48.358;10.902;2023-08-20T06:17:46;16.65;;;7.88;;
18170;SDS011;9210;48.358;10.902;2023-08-20T06:20:15;13.38;;;7.70;;
18170;SDS011;9210;48.358;10.902;2023-08-20T06:22:46;18.90;;;8.18;;
18170;SDS011;9210;48.358;10.902;2023-08-20T06:25:15;12.80;;;8.48;;
18170;SDS011;9210;48.358;10.902;2023-08-20T06:27:44;13.73;;;7.95;;
18170;SDS011;9210;48.358;10.902;2023-08-20T06:30:12;16.38;;;8.10;;
18170;SDS011;9210;48.358;10.902;2023-08-20T06:32:41;10.63;;;7.28;;
18170;SDS011;9210;48.358;10.902;2023-08-20T06:35:10;12.93;;;7.45;;
18170;SDS011;9210;48.358;10.902;2023-08-20T06:37:38;12.00;;;6.88;;
18170;SDS011;9210;48.358;10.902;2023-08-20T06:40:09;11.38;;;7.30;;
18170;SDS011;9210;48.358;10.902;2023-08-20T06:42:40;13.10;;;6.93;;
18170;SDS011;9210;48.358;10.902;2023-08-20T06:45:09;15.20;;;7.20;;
18170;SDS011;9210;48.358;10.902;2023-08-20T06:47:37;11.93;;;7.03;;
18170;SDS011;9210;48.358;10.902;2023-08-20T06:50:06;12.40;;;7.45;;
18170;SDS011;9210;48.358;10.902;2023-08-20T06:52:34;16.80;;;7.68;;
18170;SDS011;9210;48.358;10.902;2023-08-20T06:55:03;11.60;;;7.38;;
18170;SDS011;9210;48.358;10.902;2023-08-20T06:57:33;10.82;;;6.35;;
18170;SDS011;9210;48.358;10.902;2023-08-20T07:00:02;13.40;;;6.32;;
18170;SDS011;9210;48.358;10.902;2023-08-20T07:02:31;10.00;;;6.85;;
18170;SDS011;9210;48.358;10.902;2023-08-20T07:05:00;12.05;;;6.45;;
18170;SDS011;9210;48.358;10.902;2023-08-20T07:07:28;12.60;;;6.75;;
18170;SDS011;9210;48.358;10.902;2023-08-20T07:09:57;13.27;;;6.57;;
18170;SDS011;9210;48.358;10.902;2023-08-20T07:12:25;12.05;;;6.70;;
18170;SDS011;9210;48.358;10.902;2023-08-20T07:14:55;12.40;;;6.63;;
18170;SDS011;9210;48.358;10.902;2023-08-20T07:17:24;12.65;;;6.13;;
18170;SDS011;9210;48.358;10.902;2023-08-20T07:19:52;11.15;;;6.65;;
18170;SDS011;9210;48.358;10.902;2023-08-20T07:22:21;11.60;;;6.63;;
18170;SDS011;9210;48.358;10.902;2023-08-20T07:24:49;12.45;;;7.03;;
18170;SDS011;9210;48.358;10.902;2023-08-20T07:27:18;11.88;;;6.90;;
18170;SDS011;9210;48.358;10.902;2023-08-20T07:29:46;8.73;;;5.85;;
18170;SDS011;9210;48.358;10.902;2023-08-20T07:32:16;12.40;;;7.05;;
18170;SDS011;9210;48.358;10.902;2023-08-20T07:34:45;14.93;;;6.65;;
18170;SDS011;9210;48.358;10.902;2023-08-20T07:37:14;12.23;;;6.57;;
18170;SDS011;9210;48.358;10.902;2023-08-20T07:39:42;9.88;;;6.32;;
18170;SDS011;9210;48.358;10.902;2023-08-20T07:42:11;9.40;;;5.22;;
18170;SDS011;9210;48.358;10.902;2023-08-20T07:44:39;11.15;;;6.10;;
18170;SDS011;9210;48.358;10.902;2023-08-20T07:47:08;13.90;;;6.38;;
18170;SDS011;9210;48.358;10.902;2023-08-20T07:49:38;11.10;;;5.93;;
18170;SDS011;9210;48.358;10.902;2023-08-20T07:52:06;12.32;;;5.78;;
18170;SDS011;9210;48.358;10.902;2023-08-20T07:54:35;11.88;;;5.50;;
18170;SDS011;9210;48.358;10.902;2023-08-20T07:57:03;14.90;;;6.43;;
18170;SDS011;9210;48.358;10.902;2023-08-20T07:59:32;11.35;;;5.80;;
18170;SDS011;9210;48.358;10.902;2023-08-20T08:02:00;9.55;;;5.70;;
18170;SDS011;9210;48.358;10.902;2023-08-20T08:04:29;9.88;;;6.03;;
18170;SDS011;9210;48.358;10.902;2023-08-20T08:06:59;7.00;;;5.28;;
18170;SDS011;9210;48.358;10.902;2023-08-20T08:09:28;10.38;;;6.10;;
18170;SDS011;9210;48.358;10.902;2023-08-20T08:11:57;8.18;;;6.00;;
18170;SDS011;9210;48.358;10.902;2023-08-20T08:14:26;13.88;;;5.70;;
18170;SDS011;9210;48.358;10.902;2023-08-20T08:16:55;8.50;;;5.30;;
18170;SDS011;9210;48.358;10.902;2023-08-20T08:19:23;11.82;;;5.65;;
18170;SDS011;9210;48.358;10.902;2023-08-20T08:21:52;11.40;;;5.88;;
18170;SDS011;9210;48.358;10.902;2023-08-20T08:24:22;9.30;;;5.18;;
18170;SDS011;9210;48.358;10.902;2023-08-20T08:26:50;10.13;;;5.15;;
18170;SDS011;9210;48.358;10.902;2023-08-20T08:29:19;9.23;;;4.97;;
18170;SDS011;9210;48.358;10.902;2023-08-20T08:31:47;6.88;;;4.78;;
18170;SDS011;9210;48.358;10.902;2023-08-20T08:34:16;9.27;;;4.80;;
18170;SDS011;9210;48.358;10.902;2023-08-20T08:36:44;10.32;;;4.68;;
18170;SDS011;9210;48.358;10.902;2023-08-20T08:39:13;9.38;;;4.75;;
18170;SDS011;9210;48.358;10.902;2023-08-20T08:41:43;7.38;;;5.20;;
18170;SDS011;9210;48.358;10.902;2023-08-20T08:44:13;11.23;;;5.13;;
18170;SDS011;9210;48.358;10.902;2023-08-20T08:46:42;9.68;;;4.70;;
18170;SDS011;9210;48.358;10.902;2023-08-20T08:49:11;7.78;;;4.10;;
18170;SDS011;9210;48.358;10.902;2023-08-20T08:51:39;11.88;;;4.30;;
18170;SDS011;9210;48.358;10.902;2023-08-20T08:54:10;9.52;;;4.68;;
18170;SDS011;9210;48.358;10.902;2023-08-20T08:56:39;7.28;;;4.25;;
18170;SDS011;9210;48.358;10.902;2023-08-20T08:59:09;7.68;;;4.57;;
18170;SDS011;9210;48.358;10.902;2023-08-20T09:01:38;5.97;;;3.97;;
18170;SDS011;9210;48.358;10.902;2023-08-20T09:04:06;6.70;;;4.13;;
18170;SDS011;9210;48.358;10.902;2023-08-20T09:06:45;12.18;;;4.43;;
18170;SDS011;9210;48.358;10.902;2023-08-20T09:09:16;9.85;;;4.75;;
18170;SDS011;9210;48.358;10.902;2023-08-20T09:11:44;9.52;;;4.80;;
18170;SDS011;9210;48.358;10.902;2023-08-20T09:14:24;8.73;;;4.90;;
18170;SDS011;9210;48.358;10.902;2023-08-20T09:16:57;11.13;;;4.68;;
18170;SDS011;9210;48.358;10.902;2023-08-20T09:19:28;8.30;;;4.43;;
18170;SDS011;9210;48.358;10.902;2023-08-20T09:21:59;9.23;;;4.38;;
18170;SDS011;9210;48.358;10.902;2023-08-20T09:24:32;9.10;;;4.22;;
18170;SDS011;9210;48.358;10.902;2023-08-20T09:27:05;9.15;;;4.45;;
18170;SDS011;9210;48.358;10.902;2023-08-20T09:29:36;12.55;;;4.97;;
18170;SDS011;9210;48.358;10.902;2023-08-20T09:32:13;8.77;;;4.57;;
18170;SDS011;9210;48.358;10.902;2023-08-20T09:34:42;10.60;;;4.20;;
18170;SDS011;9210;48.358;10.902;2023-08-20T09:37:11;9.73;;;3.97;;
18170;SDS011;9210;48.358;10.902;2023-08-20T09:39:41;8.02;;;4.00;;
18170;SDS011;9210;48.358;10.902;2023-08-20T09:42:09;9.23;;;4.03;;
18170;SDS011;9210;48.358;10.902;2023-08-20T09:44:40;6.93;;;4.10;;
18170;SDS011;9210;48.358;10.902;2023-08-20T09:47:10;9.68;;;4.60;;
18170;SDS011;9210;48.358;10.902;2023-08-20T09:49:40;6.50;;;4.32;;
18170;SDS011;9210;48.358;10.902;2023-08-20T09:52:09;8.88;;;4.30;;
18170;SDS011;9210;48.358;10.902;2023-08-20T09:54:49;8.43;;;4.85;;
18170;SDS011;9210;48.358;10.902;2023-08-20T09:57:23;9.48;;;4.32;;
18170;SDS011;9210;48.358;10.902;2023-08-20T09:59:54;8.40;;;3.90;;
18170;SDS011;9210;48.358;10.902;2023-08-20T10:02:22;7.57;;;4.22;;
18170;SDS011;9210;48.358;10.902;2023-08-20T10:04:51;8.65;;;4.32;;
18170;SDS011;9210;48.358;10.902;2023-08-20T10:07:20;8.40;;;4.30;;
18170;SDS011;9210;48.358;10.902;2023-08-20T10:09:52;5.70;;;4.20;;
18170;SDS011;9210;48.358;10.902;2023-08-20T10:12:21;6.90;;;4.18;;
18170;SDS011;9210;48.358;10.902;2023-08-20T10:14:49;6.75;;;4.40;;
18170;SDS011;9210;48.358;10.902;2023-08-20T10:17:21;7.50;;;4.00;;
18170;SDS011;9210;48.358;10.902;2023-08-20T10:19:50;10.93;;;4.20;;
18170;SDS011;9210;48.358;10.902;2023-08-20T10:22:19;10.20;;;4.15;;
18170;SDS011;9210;48.358;10.902;2023-08-20T10:24:48;9.82;;;4.25;;
18170;SDS011;9210;48.358;10.902;2023-08-20T10:27:24;6.63;;;4.00;;
18170;SDS011;9210;48.358;10.902;2023-08-20T10:29:53;8.82;;;3.67;;
18170;SDS011;9210;48.358;10.902;2023-08-20T10:35:07;7.35;;;4.03;;
18170;SDS011;9210;48.358;10.902;2023-08-20T10:37:36;7.75;;;3.80;;
18170;SDS011;9210;48.358;10.902;2023-08-20T10:40:07;5.50;;;3.70;;
18170;SDS011;9210;48.358;10.902;2023-08-20T10:42:40;10.23;;;3.80;;
18170;SDS011;9210;48.358;10.902;2023-08-20T10:45:10;8.85;;;3.50;;
18170;SDS011;9210;48.358;10.902;2023-08-20T10:47:42;6.72;;;3.78;;
18170;SDS011;9210;48.358;10.902;2023-08-20T10:50:15;7.95;;;3.42;;
18170;SDS011;9210;48.358;10.902;2023-08-20T10:52:46;5.80;;;3.50;;
18170;SDS011;9210;48.358;10.902;2023-08-20T10:55:19;8.05;;;3.58;;
18170;SDS011;9210;48.358;10.902;2023-08-20T10:57:54;6.20;;;3.55;;
18170;SDS011;9210;48.358;10.902;2023-08-20T11:00:23;6.30;;;3.42;;
18170;SDS011;9210;48.358;10.902;2023-08-20T11:02:52;6.82;;;3.42;;
18170;SDS011;9210;48.358;10.902;2023-08-20T11:05:23;8.02;;;3.47;;
18170;SDS011;9210;48.358;10.902;2023-08-20T11:07:56;7.70;;;3.47;;
18170;SDS011;9210;48.358;10.902;2023-08-20T11:10:25;8.10;;;3.20;;
18170;SDS011;9210;48.358;10.902;2023-08-20T11:12:54;7.47;;;3.70;;
18170;SDS011;9210;48.358;10.902;2023-08-20T11:15:23;6.00;;;3.10;;
18170;SDS011;9210;48.358;10.902;2023-08-20T11:17:52;4.78;;;3.30;;
18170;SDS011;9210;48.358;10.902;2023-08-20T11:20:21;6.65;;;3.13;;
18170;SDS011;9210;48.358;10.902;2023-08-20T11:22:51;9.90;;;3.40;;
18170;SDS011;9210;48.358;10.902;2023-08-20T11:25:19;7.03;;;3.15;;
18170;SDS011;9210;48.358;10.902;2023-08-20T11:27:48;8.38;;;3.60;;
18170;SDS011;9210;48.358;10.902;2023-08-20T11:30:19;8.25;;;3.00;;
18170;SDS011;9210;48.358;10.902;2023-08-20T11:32:47;5.63;;;2.95;;
18170;SDS011;9210;48.358;10.902;2023-08-20T11:38:40;7.25;;;3.10;;
18170;SDS011;9210;48.358;10.902;2023-08-20T11:41:10;4.38;;;2.60;;
18170;SDS011;9210;48.358;10.902;2023-08-20T11:58:13;6.65;;;2.72;;
18170;SDS011;9210;48.358;10.902;2023-08-20T12:00:48;5.68;;;2.75;;
18170;SDS011;9210;48.358;10.902;2023-08-20T12:08:42;6.80;;;2.80;;
18170;SDS011;9210;48.358;10.902;2023-08-20T12:11:10;6.40;;;3.00;;
18170;SDS011;9210;48.358;10.902;2023-08-20T12:13:40;6.60;;;3.25;;
18170;SDS011;9210;48.358;10.902;2023-08-20T12:16:09;5.55;;;2.83;;
18170;SDS011;9210;48.358;10.902;2023-08-20T12:18:38;7.57;;;3.00;;
18170;SDS011;9210;48.358;10.902;2023-08-20T12:21:06;7.20;;;2.90;;
18170;SDS011;9210;48.358;10.902;2023-08-20T12:23:35;6.50;;;3.22;;
18170;SDS011;9210;48.358;10.902;2023-08-20T12:28:54;7.43;;;3.10;;
18170;SDS011;9210;48.358;10.902;2023-08-20T12:31:23;4.07;;;2.75;;
18170;SDS011;9210;48.358;10.902;2023-08-20T12:33:53;8.43;;;2.80;;
18170;SDS011;9210;48.358;10.902;2023-08-20T12:36:22;5.82;;;2.70;;
18170;SDS011;9210;48.358;10.902;2023-08-20T12:38:50;3.55;;;2.75;;
18170;SDS011;9210;48.358;10.902;2023-08-20T12:41:19;5.68;;;2.70;;
18170;SDS011;9210;48.358;10.902;2023-08-20T12:43:48;6.40;;;2.83;;
18170;SDS011;9210;48.358;10.902;2023-08-20T12:46:18;6.15;;;2.78;;
18170;SDS011;9210;48.358;10.902;2023-08-20T12:48:46;5.35;;;3.05;;
18170;SDS011;9210;48.358;10.902;2023-08-20T12:51:16;4.55;;;2.70;;
18170;SDS011;9210;48.358;10.902;2023-08-20T12:53:44;6.85;;;2.85;;
18170;SDS011;9210;48.358;10.902;2023-08-20T12:56:13;7.05;;;2.80;;
18170;SDS011;9210;48.358;10.902;2023-08-20T12:58:42;5.80;;;2.88;;
18170;SDS011;9210;48.358;10.902;2023-08-20T13:01:12;6.70;;;2.83;;
18170;SDS011;9210;48.358;10.902;2023-08-20T13:03:42;5.47;;;2.85;;
18170;SDS011;9210;48.358;10.902;2023-08-20T13:06:12;5.30;;;2.97;;
18170;SDS011;9210;48.358;10.902;2023-08-20T13:08:40;6.78;;;2.67;;
18170;SDS011;9210;48.358;10.902;2023-08-20T13:11:09;6.78;;;3.00;;
18170;SDS011;9210;48.358;10.902;2023-08-20T13:13:40;7.60;;;2.75;;
18170;SDS011;9210;48.358;10.902;2023-08-20T13:16:09;9.88;;;3.10;;
18170;SDS011;9210;48.358;10.902;2023-08-20T13:18:38;4.72;;;2.70;;
18170;SDS011;9210;48.358;10.902;2023-08-20T13:21:08;5.68;;;2.83;;
18170;SDS011;9210;48.358;10.902;2023-08-20T13:23:36;6.60;;;2.90;;
18170;SDS011;9210;48.358;10.902;2023-08-20T13:26:05;5.93;;;2.85;;
18170;SDS011;9210;48.358;10.902;2023-08-20T13:28:37;5.82;;;3.05;;
18170;SDS011;9210;48.358;10.902;2023-08-20T13:31:05;5.93;;;3.35;;
18170;SDS011;9210;48.358;10.902;2023-08-20T13:33:34;5.00;;;3.30;;
18170;SDS011;9210;48.358;10.902;2023-08-20T13:36:03;8.52;;;3.60;;
18170;SDS011;9210;48.358;10.902;2023-08-20T13:38:35;5.75;;;3.28;;
18170;SDS011;9210;48.358;10.902;2023-08-20T13:41:03;4.40;;;2.80;;
18170;SDS011;9210;48.358;10.902;2023-08-20T13:43:32;6.60;;;2.92;;
18170;SDS011;9210;48.358;10.902;2023-08-20T13:46:01;4.07;;;2.63;;
18170;SDS011;9210;48.358;10.902;2023-08-20T13:48:32;7.05;;;3.70;;
18170;SDS011;9210;48.358;10.902;2023-08-20T13:51:00;8.85;;;4.30;;
18170;SDS011;9210;48.358;10.902;2023-08-20T13:53:29;5.55;;;2.90;;
18170;SDS011;9210;48.358;10.902;2023-08-20T13:55:58;7.45;;;3.17;;
18170;SDS011;9210;48.358;10.902;2023-08-20T13:58:27;5.88;;;2.97;;
18170;SDS011;9210;48.358;10.902;2023-08-20T14:00:56;7.28;;;3.10;;
18170;SDS011;9210;48.358;10.902;2023-08-20T14:03:24;7.25;;;2.92;;
18170;SDS011;9210;48.358;10.902;2023-08-20T14:05:53;6.57;;;2.78;;
18170;SDS011;9210;48.358;10.902;2023-08-20T14:08:21;5.13;;;2.70;;
18170;SDS011;9210;48.358;10.902;2023-08-20T14:10:50;6.82;;;2.65;;
18170;SDS011;9210;48.358;10.902;2023-08-20T14:13:20;4.50;;;2.67;;
18170;SDS011;9210;48.358;10.902;2023-08-20T14:15:49;7.60;;;2.85;;
18170;SDS011;9210;48.358;10.902;2023-08-20T14:18:17;6.35;;;2.80;;
18170;SDS011;9210;48.358;10.902;2023-08-20T14:20:47;7.00;;;2.90;;
18170;SDS011;9210;48.358;10.902;2023-08-20T14:23:16;4.13;;;2.63;;
18170;SDS011;9210;48.358;10.902;2023-08-20T14:25:45;10.00;;;3.08;;
18170;SDS011;9210;48.358;10.902;2023-08-20T14:28:13;3.25;;;2.47;;
18170;SDS011;9210;48.358;10.902;2023-08-20T14:42:22;5.57;;;3.03;;
18170;SDS011;9210;48.358;10.902;2023-08-20T14:44:50;8.18;;;2.80;;
18170;SDS011;9210;48.358;10.902;2023-08-20T14:47:20;6.75;;;2.58;;
18170;SDS011;9210;48.358;10.902;2023-08-20T14:49:48;7.47;;;2.97;;
18170;SDS011;9210;48.358;10.902;2023-08-20T14:52:18;4.63;;;2.60;;
18170;SDS011;9210;48.358;10.902;2023-08-20T14:54:47;7.22;;;3.05;;
18170;SDS011;9210;48.358;10.902;2023-08-20T14:57:18;6.45;;;2.90;;
18170;SDS011;9210;48.358;10.902;2023-08-20T14:59:48;5.18;;;2.58;;
18170;SDS011;9210;48.358;10.902;2023-08-20T15:02:17;4.65;;;2.90;;
18170;SDS011;9210;48.358;10.902;2023-08-20T15:04:46;4.97;;;2.85;;
18170;SDS011;9210;48.358;10.902;2023-08-20T15:07:14;5.28;;;2.78;;
18170;SDS011;9210;48.358;10.902;2023-08-20T15:09:43;7.72;;;2.90;;
18170;SDS011;9210;48.358;10.902;2023-08-20T15:12:11;4.95;;;2.70;;
18170;SDS011;9210;48.358;10.902;2023-08-20T15:14:40;6.07;;;2.90;;
18170;SDS011;9210;48.358;10.902;2023-08-20T15:17:10;7.28;;;2.65;;
18170;SDS011;9210;48.358;10.902;2023-08-20T15:19:38;4.18;;;2.78;;
18170;SDS011;9210;48.358;10.902;2023-08-20T15:22:07;8.52;;;2.83;;
18170;SDS011;9210;48.358;10.902;2023-08-20T15:24:37;6.47;;;2.72;;
18170;SDS011;9210;48.358;10.902;2023-08-20T15:27:06;7.43;;;2.88;;
18170;SDS011;9210;48.358;10.902;2023-08-20T15:29:35;5.63;;;2.83;;
18170;SDS011;9210;48.358;10.902;2023-08-20T15:32:03;6.32;;;2.80;;
18170;SDS011;9210;48.358;10.902;2023-08-20T15:34:35;4.63;;;2.80;;
18170;SDS011;9210;48.358;10.902;2023-08-20T15:37:07;6.05;;;2.85;;
18170;SDS011;9210;48.358;10.902;2023-08-20T15:39:38;5.90;;;2.65;;